createdAt,value
2018-10-11T00:02:06.931Z,99.90
2018-10-11T00:04:35.573Z,99.90
2018-10-11T00:07:04.459Z,99.90
2018-10-11T00:09:33.562Z,99.90
2018-10-11T00:12:02.260Z,99.90
2018-10-11T00:14:31.081Z,99.90
2018-10-11T00:16:59.872Z,99.90
2018-10-11T00:19:28.561Z,99.90
2018-10-11T00:21:57.436Z,99.90
2018-10-11T00:24:26.125Z,99.90
2018-10-11T00:26:54.933Z,99.90
2018-10-11T00:29:23.987Z,99.90
2018-10-11T00:31:53.008Z,99.90
2018-10-11T00:34:21.743Z,99.90
2018-10-11T00:36:50.541Z,99.90
2018-10-11T00:39:19.398Z,99.90
2018-10-11T00:41:48.061Z,99.90
2018-10-11T00:44:16.985Z,99.90
2018-10-11T00:46:47.010Z,99.90
2018-10-11T00:49:15.819Z,99.90
2018-10-11T00:51:44.579Z,99.90
2018-10-11T00:54:13.379Z,99.90
2018-10-11T00:56:42.127Z,99.90
2018-10-11T00:59:11.585Z,99.90
2018-10-11T01:01:41.038Z,99.90
2018-10-11T01:04:10.127Z,99.90
2018-10-11T01:06:39.966Z,99.90
2018-10-11T01:09:10.101Z,99.90
2018-10-11T01:11:39.302Z,99.90
2018-10-11T01:14:08.539Z,99.90
2018-10-11T01:16:37.477Z,99.90
2018-10-11T01:19:06.279Z,99.90
2018-10-11T01:21:35.095Z,99.90
2018-10-11T01:24:03.960Z,99.90
2018-10-11T01:26:33.006Z,99.90
2018-10-11T01:29:01.864Z,99.90
2018-10-11T01:31:30.579Z,99.90
2018-10-11T01:33:59.312Z,99.90
2018-10-11T01:36:28.021Z,99.90
2018-10-11T01:38:56.889Z,99.90
2018-10-11T01:41:25.571Z,99.90
2018-10-11T01:43:54.541Z,99.90
2018-10-11T01:46:23.433Z,99.90
2018-10-11T01:48:52.306Z,99.90
2018-10-11T01:51:21.075Z,99.90
2018-10-11T01:53:50.021Z,99.90
2018-10-11T01:56:18.806Z,99.90
2018-10-11T01:58:47.449Z,99.90
2018-10-11T02:01:16.252Z,99.90
2018-10-11T02:03:45.254Z,99.90
2018-10-11T02:06:14.042Z,99.90
2018-10-11T02:08:42.945Z,99.90
2018-10-11T02:11:11.649Z,99.90
2018-10-11T02:13:40.414Z,99.90
2018-10-11T02:16:09.011Z,99.90
2018-10-11T02:18:37.892Z,99.90
2018-10-11T02:21:06.855Z,99.90
2018-10-11T02:23:35.799Z,99.90
2018-10-11T02:26:04.540Z,99.90
2018-10-11T02:28:33.188Z,99.90
2018-10-11T02:31:02.136Z,99.90
2018-10-11T02:33:30.832Z,99.90
2018-10-11T02:35:59.573Z,99.90
2018-10-11T02:38:28.240Z,99.90
2018-10-11T02:40:56.962Z,99.90
2018-10-11T02:43:25.724Z,99.90
2018-10-11T02:45:54.632Z,99.90
2018-10-11T02:48:23.291Z,99.90
2018-10-11T02:50:52.110Z,99.90
2018-10-11T02:53:20.977Z,99.90
2018-10-11T02:55:49.691Z,99.90
2018-10-11T02:58:29.435Z,99.90
2018-10-11T03:00:58.400Z,99.90
2018-10-11T03:03:28.806Z,99.90
2018-10-11T03:06:00.184Z,99.90
2018-10-11T03:08:29.300Z,99.90
2018-10-11T03:10:58.516Z,99.90
2018-10-11T03:13:27.201Z,99.90
2018-10-11T03:15:56.072Z,99.90
2018-10-11T03:18:24.799Z,99.90
2018-10-11T03:20:53.656Z,99.90
2018-10-11T03:23:22.420Z,99.90
2018-10-11T03:25:51.108Z,99.90
2018-10-11T03:28:19.826Z,99.90
2018-10-11T03:30:48.566Z,99.90
2018-10-11T03:33:17.214Z,99.90
2018-10-11T03:35:46.084Z,99.90
2018-10-11T03:38:14.917Z,99.90
2018-10-11T03:40:43.743Z,99.90
2018-10-11T03:43:12.442Z,99.90
2018-10-11T03:45:41.287Z,99.90
2018-10-11T03:48:10.029Z,99.90
2018-10-11T03:50:38.881Z,99.90
2018-10-11T03:53:07.842Z,99.90
2018-10-11T03:55:36.576Z,99.90
2018-10-11T03:58:05.648Z,99.90
2018-10-11T04:00:34.760Z,99.90
2018-10-11T04:03:03.532Z,99.90
2018-10-11T04:05:32.459Z,99.90
2018-10-11T04:08:01.171Z,99.90
2018-10-11T04:10:30.017Z,99.90
2018-10-11T04:12:58.807Z,99.90
2018-10-11T04:15:27.673Z,99.90
2018-10-11T04:17:56.496Z,99.90
2018-10-11T04:20:25.321Z,99.90
2018-10-11T04:22:54.079Z,99.90
2018-10-11T04:25:22.880Z,99.90
2018-10-11T04:27:51.544Z,99.90
2018-10-11T04:30:20.247Z,99.90
2018-10-11T04:32:49.231Z,99.90
2018-10-11T04:35:18.021Z,99.90
2018-10-11T04:37:46.670Z,99.90
2018-10-11T04:40:15.499Z,99.90
2018-10-11T04:42:44.632Z,99.90
2018-10-11T04:45:13.312Z,99.90
2018-10-11T04:47:41.984Z,99.90
2018-10-11T04:50:10.825Z,99.90
2018-10-11T04:52:39.539Z,99.90
2018-10-11T04:55:08.309Z,99.90
2018-10-11T04:57:36.999Z,99.90
2018-10-11T05:00:05.866Z,99.90
2018-10-11T05:02:34.635Z,99.90
2018-10-11T05:05:03.321Z,99.90
2018-10-11T05:07:32.228Z,99.90
2018-10-11T05:10:00.811Z,99.90
2018-10-11T05:12:29.823Z,99.90
2018-10-11T05:14:58.960Z,99.90
2018-10-11T05:17:28.068Z,99.90
2018-10-11T05:19:56.776Z,99.90
2018-10-11T05:22:25.685Z,99.90
2018-10-11T05:24:54.417Z,99.90
2018-10-11T05:27:23.454Z,99.90
2018-10-11T05:29:52.159Z,99.90
2018-10-11T05:33:05.818Z,99.90
2018-10-11T05:35:34.674Z,99.90
2018-10-11T05:38:03.652Z,99.90
2018-10-11T05:40:32.346Z,99.90
2018-10-11T05:43:01.404Z,99.90
2018-10-11T05:45:30.440Z,99.90
2018-10-11T05:47:59.355Z,99.90
2018-10-11T05:50:28.386Z,99.90
2018-10-11T05:52:57.313Z,99.90
2018-10-11T05:55:26.100Z,99.90
2018-10-11T05:57:54.947Z,99.90
2018-10-11T06:00:23.771Z,99.90
2018-10-11T06:02:59.857Z,99.90
2018-10-11T06:05:29.596Z,99.90
2018-10-11T06:07:59.335Z,99.90
2018-10-11T06:10:29.973Z,99.90
2018-10-11T06:12:58.990Z,99.90
2018-10-11T06:15:27.828Z,99.90
2018-10-11T06:17:56.803Z,99.90
2018-10-11T06:20:25.761Z,99.90
2018-10-11T06:22:54.479Z,99.90
2018-10-11T06:25:23.273Z,99.90
2018-10-11T06:27:51.868Z,99.90
2018-10-11T06:30:20.696Z,99.90
2018-10-11T06:32:49.606Z,99.90
2018-10-11T06:35:18.664Z,99.90
2018-10-11T06:37:47.529Z,99.90
2018-10-11T06:40:16.384Z,99.90
2018-10-11T06:42:45.476Z,99.90
2018-10-11T06:45:15.775Z,99.90
2018-10-11T06:47:47.654Z,99.90
2018-10-11T06:50:16.524Z,99.90
2018-10-11T06:52:45.615Z,99.90
2018-10-11T06:55:14.514Z,99.90
2018-10-11T06:57:43.294Z,99.90
2018-10-11T07:00:12.020Z,99.90
2018-10-11T07:02:40.761Z,99.90
2018-10-11T07:05:09.568Z,99.90
2018-10-11T07:07:38.327Z,99.90
2018-10-11T07:10:07.054Z,99.90
2018-10-11T07:12:35.828Z,99.90
2018-10-11T07:15:04.765Z,99.70
2018-10-11T07:17:33.513Z,98.00
2018-10-11T07:20:02.295Z,96.80
2018-10-11T07:22:30.890Z,95.40
2018-10-11T07:24:59.604Z,93.80
2018-10-11T07:27:28.205Z,93.40
2018-10-11T07:29:56.976Z,93.50
2018-10-11T07:32:25.721Z,92.40
2018-10-11T07:34:54.587Z,91.60
2018-10-11T07:37:23.452Z,91.20
2018-10-11T07:39:58.952Z,90.70
2018-10-11T07:42:27.943Z,90.60
2018-10-11T07:44:56.628Z,90.60
2018-10-11T07:47:25.477Z,91.20
2018-10-11T07:49:54.135Z,94.30
2018-10-11T07:52:22.989Z,93.30
2018-10-11T07:54:52.673Z,94.30
2018-10-11T07:57:21.528Z,95.00
2018-10-11T07:59:50.306Z,95.30
2018-10-11T08:02:19.266Z,94.20
2018-10-11T08:04:47.943Z,93.70
2018-10-11T08:07:16.696Z,93.30
2018-10-11T08:09:45.491Z,93.40
2018-10-11T08:12:14.253Z,93.80
2018-10-11T08:14:42.928Z,93.60
2018-10-11T08:17:11.916Z,94.20
2018-10-11T08:19:40.403Z,94.90
2018-10-11T08:22:09.137Z,94.30
2018-10-11T08:24:37.950Z,92.10
2018-10-11T08:27:06.852Z,91.20
2018-10-11T08:29:35.611Z,91.00
2018-10-11T08:32:04.497Z,91.10
2018-10-11T08:34:33.249Z,92.10
2018-10-11T08:37:02.080Z,92.00
2018-10-11T08:39:30.743Z,91.50
2018-10-11T08:41:59.440Z,92.50
2018-10-11T08:44:28.223Z,91.80
2018-10-11T08:46:56.884Z,91.80
2018-10-11T08:49:25.630Z,90.30
2018-10-11T08:51:54.323Z,90.10
2018-10-11T08:54:28.538Z,86.60
2018-10-11T08:56:57.519Z,85.30
2018-10-11T08:59:26.389Z,87.60
2018-10-11T09:01:55.019Z,88.50
2018-10-11T09:04:23.877Z,87.90
2018-10-11T09:06:52.557Z,86.30
2018-10-11T09:09:21.256Z,86.20
2018-10-11T09:11:50.204Z,85.30
2018-10-11T09:14:19.025Z,90.10
2018-10-11T09:16:47.760Z,90.00
2018-10-11T09:19:16.447Z,89.90
2018-10-11T09:21:45.374Z,91.40
2018-10-11T09:24:14.133Z,90.80
2018-10-11T09:26:42.961Z,90.20
2018-10-11T09:29:11.696Z,90.30
2018-10-11T09:31:40.563Z,89.00
2018-10-11T09:34:09.221Z,88.00
2018-10-11T09:36:38.166Z,86.60
2018-10-11T09:39:08.519Z,84.80
2018-10-11T09:41:37.850Z,86.50
2018-10-11T09:44:07.004Z,83.80
2018-10-11T09:46:36.133Z,85.20
2018-10-11T09:49:04.905Z,86.30
2018-10-11T09:51:33.803Z,87.30
2018-10-11T09:54:02.699Z,85.10
2018-10-11T09:57:37.888Z,82.50
2018-10-11T10:00:14.896Z,81.40
2018-10-11T10:02:44.049Z,79.10
2018-10-11T10:05:12.752Z,79.70
2018-10-11T10:07:41.672Z,79.30
2018-10-11T10:10:10.454Z,78.30
2018-10-11T10:12:39.230Z,77.00
2018-10-11T10:15:08.029Z,75.60
2018-10-11T10:17:37.111Z,76.40
2018-10-11T10:20:06.051Z,77.60
2018-10-11T10:22:34.920Z,78.60
2018-10-11T10:25:03.900Z,78.80
2018-10-11T10:27:32.716Z,74.30
2018-10-11T10:30:05.805Z,73.60
2018-10-11T10:32:34.507Z,75.10
2018-10-11T10:35:03.312Z,72.90
2018-10-11T10:37:32.057Z,72.00
2018-10-11T10:40:01.158Z,72.50
2018-10-11T10:42:29.814Z,82.30
2018-10-11T10:44:58.583Z,86.50
2018-10-11T10:47:27.377Z,88.60
2018-10-11T10:49:56.180Z,89.80
2018-10-11T10:52:25.080Z,90.50
2018-10-11T10:54:53.816Z,90.40
2018-10-11T10:57:22.552Z,90.10
2018-10-11T10:59:51.255Z,88.40
2018-10-11T11:02:19.908Z,87.40
2018-10-11T11:04:48.537Z,87.40
2018-10-11T11:07:17.238Z,88.10
2018-10-11T11:09:45.991Z,90.50
2018-10-11T11:12:14.802Z,91.50
2018-10-11T11:14:43.558Z,92.00
2018-10-11T11:17:12.293Z,91.40
2018-10-11T11:19:41.124Z,91.70
2018-10-11T11:22:09.851Z,92.30
2018-10-11T11:24:38.493Z,92.10
2018-10-11T11:27:07.223Z,90.50
2018-10-11T11:29:35.828Z,90.50
2018-10-11T11:32:04.525Z,88.20
2018-10-11T11:34:33.187Z,87.00
2018-10-11T11:37:01.937Z,84.40
2018-10-11T11:39:30.631Z,83.30
2018-10-11T11:41:59.415Z,81.90
2018-10-11T11:44:28.088Z,83.40
2018-10-11T11:46:56.975Z,85.90
2018-10-11T11:49:25.705Z,86.90
2018-10-11T11:51:54.564Z,85.20
2018-10-11T11:54:23.250Z,83.10
2018-10-11T11:56:52.412Z,82.00
2018-10-11T11:59:21.323Z,83.90
2018-10-11T12:01:50.359Z,85.50
2018-10-11T12:04:19.098Z,88.70
2018-10-11T12:06:47.959Z,88.70
2018-10-11T12:09:16.715Z,89.50
2018-10-11T12:11:45.339Z,90.40
2018-10-11T12:14:14.035Z,89.20
2018-10-11T12:16:42.836Z,89.80
2018-10-11T12:19:11.977Z,88.50
2018-10-11T12:21:40.980Z,87.70
2018-10-11T12:24:09.908Z,86.80
2018-10-11T12:26:38.824Z,86.00
2018-10-11T12:29:07.503Z,87.60
2018-10-11T12:31:36.192Z,89.30
2018-10-11T12:34:04.936Z,89.70
2018-10-11T12:36:33.834Z,89.50
2018-10-11T12:39:02.572Z,90.00
2018-10-11T12:41:31.330Z,90.50
2018-10-11T12:44:00.152Z,90.90
2018-10-11T12:46:31.183Z,90.40
2018-10-11T12:48:57.628Z,91.00
2018-10-11T12:51:26.337Z,90.60
2018-10-11T12:53:55.187Z,91.50
2018-10-11T12:56:24.097Z,92.10
2018-10-11T12:58:52.663Z,93.20
2018-10-11T13:01:23.630Z,93.50
2018-10-11T13:03:50.416Z,94.00
2018-10-11T13:06:19.424Z,93.20
2018-10-11T13:08:48.134Z,93.50
2018-10-11T13:11:16.897Z,93.30
2018-10-11T13:13:47.861Z,94.50
2018-10-11T13:16:14.540Z,95.10
2018-10-11T13:18:43.212Z,95.70
2018-10-11T13:21:11.963Z,95.40
2018-10-11T13:23:40.565Z,95.50
2018-10-11T13:26:09.321Z,96.00
2018-10-11T13:28:38.195Z,96.80
2018-10-11T13:31:07.011Z,96.20
2018-10-11T13:33:35.661Z,96.10
2018-10-11T13:36:04.467Z,96.80
2018-10-11T13:38:33.289Z,97.60
2018-10-11T13:41:03.704Z,98.10
2018-10-11T13:43:30.831Z,98.10
2018-10-11T13:46:01.976Z,97.50
2018-10-11T13:48:28.678Z,97.40
2018-10-11T13:50:57.483Z,97.30
2018-10-11T13:53:26.233Z,97.00
2018-10-11T13:55:58.311Z,97.20
2018-10-11T13:58:23.807Z,97.20
2018-10-11T14:00:52.523Z,97.00
2018-10-11T14:03:21.236Z,97.50
2018-10-11T14:05:50.117Z,96.70
2018-10-11T14:08:18.847Z,96.50
2018-10-11T14:10:47.782Z,97.20
2018-10-11T14:13:18.826Z,97.70
2018-10-11T14:15:45.476Z,96.80
2018-10-11T14:18:14.441Z,95.90
2018-10-11T14:20:43.460Z,97.20
2018-10-11T14:23:12.406Z,97.50
2018-10-11T14:25:41.349Z,97.20
2018-10-11T14:28:10.140Z,97.80
2018-10-11T14:30:41.968Z,97.30
2018-10-11T14:33:10.682Z,97.60
2018-10-11T14:35:39.360Z,98.30
2018-10-11T14:38:08.021Z,97.80
2018-10-11T14:40:36.797Z,98.40
2018-10-11T14:43:05.830Z,99.10
2018-10-11T14:45:34.602Z,98.20
2018-10-11T14:48:03.453Z,97.70
2018-10-11T14:50:32.063Z,96.50
2018-10-11T14:53:00.915Z,96.80
2018-10-11T14:55:29.868Z,97.20
2018-10-11T14:57:58.616Z,97.80
2018-10-11T15:00:27.326Z,98.00
2018-10-11T15:02:56.374Z,98.20
2018-10-11T15:05:25.018Z,98.20
2018-10-11T15:07:53.648Z,98.30
2018-10-11T15:10:22.393Z,98.00
2018-10-11T15:12:51.278Z,98.00
2018-10-11T15:15:20.274Z,99.00
2018-10-11T15:17:48.965Z,99.00
2018-10-11T15:20:17.843Z,98.50
2018-10-11T15:22:46.500Z,98.10
2018-10-11T15:25:15.407Z,97.90
2018-10-11T15:27:44.183Z,97.60
2018-10-11T15:30:13.068Z,97.50
2018-10-11T15:32:41.810Z,97.60
2018-10-11T15:35:10.571Z,98.00
2018-10-11T15:37:39.427Z,99.80
2018-10-11T15:40:08.433Z,99.90
2018-10-11T15:42:37.210Z,99.90
2018-10-11T15:45:07.231Z,99.90
2018-10-11T15:47:36.063Z,99.90
2018-10-11T15:50:04.817Z,99.90
2018-10-11T15:52:33.538Z,99.90
2018-10-11T15:55:02.207Z,99.90
2018-10-11T15:57:31.157Z,99.90
2018-10-11T15:59:59.829Z,99.90
2018-10-11T16:02:28.555Z,99.90
2018-10-11T16:04:57.324Z,99.90
2018-10-11T16:07:26.107Z,99.90
2018-10-11T16:09:54.796Z,99.90
2018-10-11T16:12:23.528Z,99.90
2018-10-11T16:14:52.166Z,99.90
2018-10-11T16:17:20.910Z,99.90
2018-10-11T16:19:49.544Z,99.90
2018-10-11T16:22:18.580Z,99.90
2018-10-11T16:24:47.385Z,99.90
2018-10-11T16:27:16.222Z,99.90
2018-10-11T16:29:44.904Z,99.90
2018-10-11T16:32:13.775Z,99.90
2018-10-11T16:34:42.377Z,99.90
2018-10-11T16:37:11.152Z,99.90
2018-10-11T16:39:39.911Z,99.90
2018-10-11T16:42:08.504Z,99.90
2018-10-11T16:44:37.107Z,99.90
2018-10-11T16:47:05.816Z,99.90
2018-10-11T16:49:34.583Z,99.90
2018-10-11T16:52:03.383Z,99.90
2018-10-11T16:54:31.988Z,99.90
2018-10-11T16:57:01.016Z,99.90
2018-10-11T16:59:29.672Z,99.90
2018-10-11T17:01:58.535Z,99.90
2018-10-11T17:04:27.200Z,99.90
2018-10-11T17:06:55.903Z,99.90
2018-10-11T17:09:24.689Z,99.90
2018-10-11T17:11:53.391Z,99.90
2018-10-11T17:14:22.185Z,99.90
2018-10-11T17:16:50.851Z,99.90
2018-10-11T17:19:19.738Z,99.90
2018-10-11T17:21:48.477Z,99.90
2018-10-11T17:24:17.307Z,99.90
2018-10-11T17:26:46.009Z,99.90
2018-10-11T17:29:14.639Z,99.90
2018-10-11T17:31:43.506Z,99.90
2018-10-11T17:34:12.166Z,99.90
2018-10-11T17:36:41.046Z,99.90
2018-10-11T17:39:10.843Z,99.90
2018-10-11T17:41:40.190Z,99.90
2018-10-11T17:44:09.442Z,99.90
2018-10-11T17:46:38.058Z,99.90
2018-10-11T17:49:06.823Z,99.90
2018-10-11T17:51:35.546Z,99.90
2018-10-11T17:54:04.295Z,99.90
2018-10-11T17:56:33.341Z,99.90
2018-10-11T17:59:01.939Z,99.90
2018-10-11T18:01:31.080Z,99.90
2018-10-11T18:03:59.824Z,99.90
2018-10-11T18:06:28.630Z,99.90
2018-10-11T18:08:57.440Z,99.90
2018-10-11T18:11:26.149Z,99.90
2018-10-11T18:13:55.017Z,99.90
2018-10-11T18:16:23.926Z,99.90
2018-10-11T18:18:52.799Z,99.90
2018-10-11T18:21:21.583Z,99.90
2018-10-11T18:23:50.380Z,99.90
2018-10-11T18:26:19.265Z,99.90
2018-10-11T18:28:47.961Z,99.90
2018-10-11T18:31:16.835Z,99.90
2018-10-11T18:33:45.491Z,99.90
2018-10-11T18:36:14.222Z,99.90
2018-10-11T18:38:43.164Z,99.90
2018-10-11T18:41:11.851Z,99.90
2018-10-11T18:43:40.504Z,99.90
2018-10-11T18:46:09.254Z,99.90
2018-10-11T18:48:38.102Z,99.90
2018-10-11T18:51:07.035Z,99.90
2018-10-11T18:53:35.908Z,99.90
2018-10-11T18:56:04.833Z,99.90
2018-10-11T18:58:33.740Z,99.90
2018-10-11T19:01:02.532Z,99.90
2018-10-11T19:03:31.154Z,99.90
2018-10-11T19:05:59.984Z,99.90
2018-10-11T19:08:28.973Z,99.90
2018-10-11T19:10:57.913Z,99.90
2018-10-11T19:13:26.652Z,99.90
2018-10-11T19:15:55.340Z,99.90
2018-10-11T19:18:23.979Z,99.90
2018-10-11T19:20:52.776Z,99.90
2018-10-11T19:23:22.076Z,99.90
2018-10-11T19:25:50.697Z,99.90
2018-10-11T19:28:19.831Z,99.90
2018-10-11T19:30:48.697Z,99.90
2018-10-11T19:33:17.527Z,99.90
2018-10-11T19:35:46.397Z,99.90
2018-10-11T19:38:14.857Z,99.90
2018-10-11T19:40:43.596Z,99.90
2018-10-11T19:43:12.306Z,99.90
2018-10-11T19:45:41.095Z,99.90
2018-10-11T19:48:10.127Z,99.90
2018-10-11T19:50:38.965Z,99.90
2018-10-11T19:53:07.836Z,99.90
2018-10-11T19:55:36.743Z,99.90
2018-10-11T19:58:05.562Z,99.90
2018-10-11T20:00:34.424Z,99.90
2018-10-11T20:03:03.751Z,99.90
2018-10-11T20:05:32.300Z,99.90
2018-10-11T20:08:01.137Z,99.90
2018-10-11T20:10:29.907Z,99.90
2018-10-11T20:12:58.661Z,99.90
2018-10-11T20:15:27.551Z,99.90
2018-10-11T20:17:56.317Z,99.90
2018-10-11T20:20:24.997Z,99.90
2018-10-11T20:22:53.631Z,99.90
2018-10-11T20:25:22.369Z,99.90
2018-10-11T20:27:51.048Z,99.90
2018-10-11T20:30:19.790Z,99.90
2018-10-11T20:32:48.380Z,99.90
2018-10-11T20:35:17.135Z,99.90
2018-10-11T20:37:46.052Z,99.90
2018-10-11T20:40:14.725Z,99.90
2018-10-11T20:42:43.483Z,99.90
2018-10-11T20:45:12.410Z,99.90
2018-10-11T20:47:41.224Z,99.90
2018-10-11T20:50:10.192Z,99.90
2018-10-11T20:52:39.091Z,99.90
2018-10-11T20:55:07.951Z,99.90
2018-10-11T20:57:36.826Z,99.90
2018-10-11T21:00:06.306Z,99.90
2018-10-11T21:02:35.359Z,99.90
2018-10-11T21:05:04.097Z,99.90
2018-10-11T21:07:32.835Z,99.90
2018-10-11T21:10:01.604Z,99.90
2018-10-11T21:12:30.389Z,99.90
2018-10-11T21:14:59.111Z,99.90
2018-10-11T21:17:27.968Z,99.90
2018-10-11T21:19:56.716Z,99.90
2018-10-11T21:22:25.439Z,99.90
2018-10-11T21:24:54.133Z,99.90
2018-10-11T21:27:23.061Z,99.90
2018-10-11T21:29:51.935Z,99.90
2018-10-11T21:32:20.728Z,99.90
2018-10-11T21:34:49.580Z,99.90
2018-10-11T21:37:18.407Z,99.90
2018-10-11T21:39:47.077Z,99.90
2018-10-11T21:42:15.857Z,99.90
2018-10-11T21:44:44.491Z,99.90
2018-10-11T21:47:13.275Z,99.90
2018-10-11T21:49:42.012Z,99.90
2018-10-11T21:52:11.080Z,99.90
2018-10-11T21:54:40.289Z,99.90
2018-10-11T21:57:09.185Z,99.90
2018-10-11T21:59:38.315Z,99.90
2018-10-11T22:02:07.343Z,99.90
2018-10-11T22:04:35.958Z,99.90
2018-10-11T22:07:04.767Z,99.90
2018-10-11T22:09:33.484Z,99.90
2018-10-11T22:12:02.318Z,99.90
2018-10-11T22:14:31.247Z,99.90
2018-10-11T22:16:59.892Z,99.90
2018-10-11T22:19:28.797Z,99.90
2018-10-11T22:21:57.465Z,99.90
2018-10-11T22:24:26.361Z,99.90
2018-10-11T22:26:55.095Z,99.90
2018-10-11T22:29:24.071Z,99.90
2018-10-11T22:31:52.883Z,99.90
2018-10-11T22:34:21.512Z,99.90
2018-10-11T22:36:50.424Z,99.90
2018-10-11T22:39:19.099Z,99.90
2018-10-11T22:41:47.878Z,99.90
2018-10-11T22:44:16.647Z,99.90
2018-10-11T22:46:45.608Z,99.90
2018-10-11T22:49:14.459Z,99.90
2018-10-11T22:51:43.192Z,99.90
2018-10-11T22:54:11.948Z,99.90
2018-10-11T22:56:41.011Z,99.90
2018-10-11T22:59:09.694Z,99.90
2018-10-11T23:01:38.478Z,99.90
2018-10-11T23:04:07.286Z,99.90
2018-10-11T23:06:36.105Z,99.90
2018-10-11T23:09:06.421Z,99.90
2018-10-11T23:11:35.160Z,99.90
2018-10-11T23:14:04.150Z,99.90
2018-10-11T23:16:32.977Z,99.90
2018-10-11T23:19:01.840Z,99.90
2018-10-11T23:21:30.562Z,99.90
2018-10-11T23:23:59.402Z,99.90
2018-10-11T23:26:28.151Z,99.90
2018-10-11T23:28:56.902Z,99.90
2018-10-11T23:31:25.701Z,99.90
2018-10-11T23:33:54.472Z,99.90
2018-10-11T23:36:23.196Z,99.90
2018-10-11T23:38:52.012Z,99.90
2018-10-11T23:41:20.651Z,99.90
2018-10-11T23:43:49.252Z,99.90
2018-10-11T23:46:17.931Z,99.90
2018-10-11T23:48:46.627Z,99.90
2018-10-11T23:51:15.390Z,99.90
2018-10-11T23:53:44.010Z,99.90
2018-10-11T23:56:12.764Z,99.90
2018-10-11T23:58:41.502Z,99.90
